sensor_id;sensor_type;location;lat;lon;timestamp;P1;durP1;ratioP1;P2;durP2;ratioP2
14048;SDS011;7099;53.922;10.728;2022-12-18T00:03:27;15.60;;;9.03;;
14048;SDS011;7099;53.922;10.728;2022-12-18T00:07:32;15.57;;;9.80;;
14048;SDS011;7099;53.922;10.728;2022-12-18T00:11:37;19.03;;;9.17;;
14048;SDS011;7099;53.922;10.728;2022-12-18T00:15:42;12.00;;;8.73;;
14048;SDS011;7099;53.922;10.728;2022-12-18T00:19:47;15.70;;;9.23;;
14048;SDS011;7099;53.922;10.728;2022-12-18T00:23:52;16.23;;;8.77;;
14048;SDS011;7099;53.922;10.728;2022-12-18T00:27:57;16.67;;;8.80;;
14048;SDS011;7099;53.922;10.728;2022-12-18T00:32:02;14.93;;;8.40;;
14048;SDS011;7099;53.922;10.728;2022-12-18T00:36:11;16.90;;;8.80;;
14048;SDS011;7099;53.922;10.728;2022-12-18T00:40:25;15.33;;;8.90;;
14048;SDS011;7099;53.922;10.728;2022-12-18T00:44:30;15.30;;;9.30;;
14048;SDS011;7099;53.922;10.728;2022-12-18T00:48:35;18.00;;;8.50;;
14048;SDS011;7099;53.922;10.728;2022-12-18T00:52:40;14.50;;;8.80;;
14048;SDS011;7099;53.922;10.728;2022-12-18T00:56:45;13.40;;;8.93;;
14048;SDS011;7099;53.922;10.728;2022-12-18T01:00:53;17.60;;;9.10;;
14048;SDS011;7099;53.922;10.728;2022-12-18T01:04:58;14.90;;;9.10;;
14048;SDS011;7099;53.922;10.728;2022-12-18T01:09:03;14.63;;;9.10;;
14048;SDS011;7099;53.922;10.728;2022-12-18T01:13:08;13.80;;;7.90;;
14048;SDS011;7099;53.922;10.728;2022-12-18T01:17:13;15.17;;;8.67;;
14048;SDS011;7099;53.922;10.728;2022-12-18T01:21:18;16.33;;;9.17;;
14048;SDS011;7099;53.922;10.728;2022-12-18T01:25:23;12.40;;;8.60;;
14048;SDS011;7099;53.922;10.728;2022-12-18T01:29:29;15.03;;;7.87;;
14048;SDS011;7099;53.922;10.728;2022-12-18T01:33:34;17.90;;;8.60;;
14048;SDS011;7099;53.922;10.728;2022-12-18T01:37:39;13.13;;;8.27;;
14048;SDS011;7099;53.922;10.728;2022-12-18T01:41:45;12.53;;;8.20;;
14048;SDS011;7099;53.922;10.728;2022-12-18T01:46:09;18.67;;;8.60;;
14048;SDS011;7099;53.922;10.728;2022-12-18T01:50:18;13.00;;;8.30;;
14048;SDS011;7099;53.922;10.728;2022-12-18T01:54:25;15.30;;;8.60;;
14048;SDS011;7099;53.922;10.728;2022-12-18T02:02:46;16.40;;;9.43;;
14048;SDS011;7099;53.922;10.728;2022-12-18T02:06:58;15.60;;;9.07;;
14048;SDS011;7099;53.922;10.728;2022-12-18T02:11:37;19.60;;;9.20;;
14048;SDS011;7099;53.922;10.728;2022-12-18T02:20:54;14.27;;;8.43;;
14048;SDS011;7099;53.922;10.728;2022-12-18T02:29:52;15.70;;;8.90;;
14048;SDS011;7099;53.922;10.728;2022-12-18T02:34:02;14.37;;;9.23;;
14048;SDS011;7099;53.922;10.728;2022-12-18T02:38:11;23.70;;;9.17;;
14048;SDS011;7099;53.922;10.728;2022-12-18T02:42:18;17.50;;;9.70;;
14048;SDS011;7099;53.922;10.728;2022-12-18T02:50:41;20.47;;;9.60;;
14048;SDS011;7099;53.922;10.728;2022-12-18T02:59:06;15.30;;;9.30;;
14048;SDS011;7099;53.922;10.728;2022-12-18T03:07:46;11.93;;;7.97;;
14048;SDS011;7099;53.922;10.728;2022-12-18T03:12:12;13.53;;;8.50;;
14048;SDS011;7099;53.922;10.728;2022-12-18T03:16:28;15.77;;;8.57;;
14048;SDS011;7099;53.922;10.728;2022-12-18T03:20:35;14.43;;;9.10;;
14048;SDS011;7099;53.922;10.728;2022-12-18T03:24:44;14.43;;;8.67;;
14048;SDS011;7099;53.922;10.728;2022-12-18T03:28:55;15.97;;;9.63;;
14048;SDS011;7099;53.922;10.728;2022-12-18T03:33:12;16.87;;;9.27;;
14048;SDS011;7099;53.922;10.728;2022-12-18T03:37:22;13.20;;;8.60;;
14048;SDS011;7099;53.922;10.728;2022-12-18T03:45:54;13.00;;;8.30;;
14048;SDS011;7099;53.922;10.728;2022-12-18T03:54:53;15.40;;;8.30;;
14048;SDS011;7099;53.922;10.728;2022-12-18T03:58:59;15.40;;;9.67;;
14048;SDS011;7099;53.922;10.728;2022-12-18T04:03:07;16.10;;;9.13;;
14048;SDS011;7099;53.922;10.728;2022-12-18T04:07:13;20.70;;;9.80;;
14048;SDS011;7099;53.922;10.728;2022-12-18T04:11:19;14.90;;;8.60;;
14048;SDS011;7099;53.922;10.728;2022-12-18T04:15:24;15.50;;;9.13;;
14048;SDS011;7099;53.922;10.728;2022-12-18T04:19:29;15.63;;;9.07;;
14048;SDS011;7099;53.922;10.728;2022-12-18T04:23:34;15.60;;;8.83;;
14048;SDS011;7099;53.922;10.728;2022-12-18T04:27:39;20.47;;;10.07;;
14048;SDS011;7099;53.922;10.728;2022-12-18T04:31:44;15.93;;;9.40;;
14048;SDS011;7099;53.922;10.728;2022-12-18T04:35:49;21.70;;;10.60;;
14048;SDS011;7099;53.922;10.728;2022-12-18T04:39:54;15.27;;;8.70;;
14048;SDS011;7099;53.922;10.728;2022-12-18T04:44:00;16.50;;;10.27;;
14048;SDS011;7099;53.922;10.728;2022-12-18T04:48:04;15.23;;;9.07;;
14048;SDS011;7099;53.922;10.728;2022-12-18T04:52:09;18.10;;;9.17;;
14048;SDS011;7099;53.922;10.728;2022-12-18T04:56:15;18.03;;;10.00;;
14048;SDS011;7099;53.922;10.728;2022-12-18T05:00:20;14.20;;;9.10;;
14048;SDS011;7099;53.922;10.728;2022-12-18T05:04:26;24.13;;;10.47;;
14048;SDS011;7099;53.922;10.728;2022-12-18T05:08:31;18.97;;;9.77;;
14048;SDS011;7099;53.922;10.728;2022-12-18T05:12:36;20.63;;;10.00;;
14048;SDS011;7099;53.922;10.728;2022-12-18T05:17:01;15.63;;;8.70;;
14048;SDS011;7099;53.922;10.728;2022-12-18T05:21:06;17.67;;;8.97;;
14048;SDS011;7099;53.922;10.728;2022-12-18T05:25:11;13.17;;;7.93;;
14048;SDS011;7099;53.922;10.728;2022-12-18T05:29:16;15.47;;;8.70;;
14048;SDS011;7099;53.922;10.728;2022-12-18T05:33:22;18.10;;;9.87;;
14048;SDS011;7099;53.922;10.728;2022-12-18T05:37:29;17.93;;;9.40;;
14048;SDS011;7099;53.922;10.728;2022-12-18T05:41:34;14.87;;;8.37;;
14048;SDS011;7099;53.922;10.728;2022-12-18T05:45:39;16.10;;;9.27;;
14048;SDS011;7099;53.922;10.728;2022-12-18T05:49:45;15.40;;;9.27;;
14048;SDS011;7099;53.922;10.728;2022-12-18T05:53:50;15.47;;;8.67;;
14048;SDS011;7099;53.922;10.728;2022-12-18T05:57:55;14.57;;;7.93;;
14048;SDS011;7099;53.922;10.728;2022-12-18T06:01:59;14.00;;;8.07;;
14048;SDS011;7099;53.922;10.728;2022-12-18T06:06:12;19.10;;;8.40;;
14048;SDS011;7099;53.922;10.728;2022-12-18T06:10:26;17.80;;;8.77;;
14048;SDS011;7099;53.922;10.728;2022-12-18T06:14:31;17.13;;;8.50;;
14048;SDS011;7099;53.922;10.728;2022-12-18T06:18:36;18.60;;;9.17;;
14048;SDS011;7099;53.922;10.728;2022-12-18T06:22:41;23.10;;;9.80;;
14048;SDS011;7099;53.922;10.728;2022-12-18T06:26:46;18.13;;;8.30;;
14048;SDS011;7099;53.922;10.728;2022-12-18T06:30:51;15.27;;;8.57;;
14048;SDS011;7099;53.922;10.728;2022-12-18T06:34:57;18.27;;;9.43;;
14048;SDS011;7099;53.922;10.728;2022-12-18T06:39:02;17.40;;;9.07;;
14048;SDS011;7099;53.922;10.728;2022-12-18T06:43:07;14.80;;;8.67;;
14048;SDS011;7099;53.922;10.728;2022-12-18T06:47:12;13.80;;;8.00;;
14048;SDS011;7099;53.922;10.728;2022-12-18T06:51:18;17.53;;;9.50;;
14048;SDS011;7099;53.922;10.728;2022-12-18T06:55:24;19.47;;;9.17;;
14048;SDS011;7099;53.922;10.728;2022-12-18T06:59:30;23.38;;;12.70;;
14048;SDS011;7099;53.922;10.728;2022-12-18T07:03:34;22.43;;;9.13;;
14048;SDS011;7099;53.922;10.728;2022-12-18T07:07:41;16.87;;;8.07;;
14048;SDS011;7099;53.922;10.728;2022-12-18T07:11:46;18.87;;;9.67;;
14048;SDS011;7099;53.922;10.728;2022-12-18T07:15:51;21.27;;;9.50;;
14048;SDS011;7099;53.922;10.728;2022-12-18T07:19:56;15.20;;;7.70;;
14048;SDS011;7099;53.922;10.728;2022-12-18T07:24:01;18.07;;;8.50;;
14048;SDS011;7099;53.922;10.728;2022-12-18T07:28:06;19.40;;;8.80;;
14048;SDS011;7099;53.922;10.728;2022-12-18T07:32:17;17.90;;;8.63;;
14048;SDS011;7099;53.922;10.728;2022-12-18T07:36:22;22.50;;;9.83;;
14048;SDS011;7099;53.922;10.728;2022-12-18T07:40:27;18.17;;;7.97;;
14048;SDS011;7099;53.922;10.728;2022-12-18T07:44:32;17.77;;;8.23;;
14048;SDS011;7099;53.922;10.728;2022-12-18T07:48:37;18.43;;;8.50;;
14048;SDS011;7099;53.922;10.728;2022-12-18T07:52:42;16.63;;;8.80;;
14048;SDS011;7099;53.922;10.728;2022-12-18T07:56:47;17.20;;;8.80;;
14048;SDS011;7099;53.922;10.728;2022-12-18T08:00:52;16.70;;;8.37;;
14048;SDS011;7099;53.922;10.728;2022-12-18T08:04:57;13.67;;;7.10;;
14048;SDS011;7099;53.922;10.728;2022-12-18T08:09:02;15.70;;;8.10;;
14048;SDS011;7099;53.922;10.728;2022-12-18T08:13:07;17.57;;;9.33;;
14048;SDS011;7099;53.922;10.728;2022-12-18T08:17:12;15.80;;;7.83;;
14048;SDS011;7099;53.922;10.728;2022-12-18T08:21:18;15.80;;;8.23;;
14048;SDS011;7099;53.922;10.728;2022-12-18T08:25:30;18.07;;;8.47;;
14048;SDS011;7099;53.922;10.728;2022-12-18T08:29:35;20.10;;;9.20;;
14048;SDS011;7099;53.922;10.728;2022-12-18T08:33:40;18.83;;;8.50;;
14048;SDS011;7099;53.922;10.728;2022-12-18T08:37:46;17.30;;;9.00;;
14048;SDS011;7099;53.922;10.728;2022-12-18T08:41:51;13.40;;;7.60;;
14048;SDS011;7099;53.922;10.728;2022-12-18T08:46:19;18.67;;;8.50;;
14048;SDS011;7099;53.922;10.728;2022-12-18T08:50:26;18.13;;;8.60;;
14048;SDS011;7099;53.922;10.728;2022-12-18T08:54:31;17.70;;;7.90;;
14048;SDS011;7099;53.922;10.728;2022-12-18T08:58:36;22.43;;;8.73;;
14048;SDS011;7099;53.922;10.728;2022-12-18T09:02:41;17.00;;;7.70;;
14048;SDS011;7099;53.922;10.728;2022-12-18T09:06:46;17.97;;;8.10;;
14048;SDS011;7099;53.922;10.728;2022-12-18T09:10:51;14.80;;;8.27;;
14048;SDS011;7099;53.922;10.728;2022-12-18T09:14:56;19.33;;;7.63;;
14048;SDS011;7099;53.922;10.728;2022-12-18T09:19:02;22.53;;;8.63;;
14048;SDS011;7099;53.922;10.728;2022-12-18T09:23:08;19.73;;;7.87;;
14048;SDS011;7099;53.922;10.728;2022-12-18T09:27:15;18.80;;;8.40;;
14048;SDS011;7099;53.922;10.728;2022-12-18T09:31:20;15.20;;;7.50;;
14048;SDS011;7099;53.922;10.728;2022-12-18T09:35:28;21.97;;;9.00;;
14048;SDS011;7099;53.922;10.728;2022-12-18T09:39:33;18.90;;;7.97;;
14048;SDS011;7099;53.922;10.728;2022-12-18T09:43:41;19.37;;;8.23;;
14048;SDS011;7099;53.922;10.728;2022-12-18T09:47:52;17.27;;;8.10;;
14048;SDS011;7099;53.922;10.728;2022-12-18T09:52:05;15.87;;;7.63;;
14048;SDS011;7099;53.922;10.728;2022-12-18T09:56:18;17.30;;;8.90;;
14048;SDS011;7099;53.922;10.728;2022-12-18T10:00:27;16.97;;;9.07;;
14048;SDS011;7099;53.922;10.728;2022-12-18T10:04:31;22.50;;;8.53;;
14048;SDS011;7099;53.922;10.728;2022-12-18T10:17:24;21.40;;;9.10;;
14048;SDS011;7099;53.922;10.728;2022-12-18T10:22:10;19.27;;;8.43;;
14048;SDS011;7099;53.922;10.728;2022-12-18T10:26:46;18.30;;;7.60;;
14048;SDS011;7099;53.922;10.728;2022-12-18T10:30:52;15.87;;;8.20;;
14048;SDS011;7099;53.922;10.728;2022-12-18T10:34:57;15.97;;;8.10;;
14048;SDS011;7099;53.922;10.728;2022-12-18T10:39:14;15.40;;;8.57;;
14048;SDS011;7099;53.922;10.728;2022-12-18T10:43:34;13.60;;;7.60;;
14048;SDS011;7099;53.922;10.728;2022-12-18T10:47:46;16.80;;;8.50;;
14048;SDS011;7099;53.922;10.728;2022-12-18T10:56:21;15.67;;;8.03;;
14048;SDS011;7099;53.922;10.728;2022-12-18T11:00:29;15.10;;;7.93;;
14048;SDS011;7099;53.922;10.728;2022-12-18T11:04:35;13.43;;;7.20;;
14048;SDS011;7099;53.922;10.728;2022-12-18T11:13:27;18.80;;;7.93;;
14048;SDS011;7099;53.922;10.728;2022-12-18T11:17:35;15.90;;;8.13;;
14048;SDS011;7099;53.922;10.728;2022-12-18T11:21:40;18.33;;;8.17;;
14048;SDS011;7099;53.922;10.728;2022-12-18T11:26:04;15.47;;;8.70;;
14048;SDS011;7099;53.922;10.728;2022-12-18T11:30:32;16.77;;;8.23;;
14048;SDS011;7099;53.922;10.728;2022-12-18T11:34:41;16.33;;;8.90;;
14048;SDS011;7099;53.922;10.728;2022-12-18T11:38:51;17.90;;;8.73;;
14048;SDS011;7099;53.922;10.728;2022-12-18T11:43:06;18.97;;;8.43;;
14048;SDS011;7099;53.922;10.728;2022-12-18T11:47:26;15.20;;;8.10;;
14048;SDS011;7099;53.922;10.728;2022-12-18T11:52:15;18.67;;;8.57;;
14048;SDS011;7099;53.922;10.728;2022-12-18T11:56:43;16.97;;;8.80;;
14048;SDS011;7099;53.922;10.728;2022-12-18T12:11:33;21.43;;;9.13;;
14048;SDS011;7099;53.922;10.728;2022-12-18T12:15:32;18.97;;;8.67;;
14048;SDS011;7099;53.922;10.728;2022-12-18T12:42:12;18.40;;;8.37;;
14048;SDS011;7099;53.922;10.728;2022-12-18T12:46:59;18.63;;;8.33;;
14048;SDS011;7099;53.922;10.728;2022-12-18T12:51:20;19.47;;;8.73;;
14048;SDS011;7099;53.922;10.728;2022-12-18T12:55:35;20.70;;;9.53;;
14048;SDS011;7099;53.922;10.728;2022-12-18T13:08:24;18.40;;;8.47;;
14048;SDS011;7099;53.922;10.728;2022-12-18T13:12:37;24.07;;;9.20;;
14048;SDS011;7099;53.922;10.728;2022-12-18T13:21:28;16.53;;;9.23;;
14048;SDS011;7099;53.922;10.728;2022-12-18T13:25:37;21.80;;;10.10;;
14048;SDS011;7099;53.922;10.728;2022-12-18T13:29:43;25.47;;;11.10;;
14048;SDS011;7099;53.922;10.728;2022-12-18T13:33:50;20.87;;;9.00;;
14048;SDS011;7099;53.922;10.728;2022-12-18T13:38:34;18.30;;;9.43;;
14048;SDS011;7099;53.922;10.728;2022-12-18T13:42:41;19.17;;;8.97;;
14048;SDS011;7099;53.922;10.728;2022-12-18T13:47:04;16.97;;;9.70;;
14048;SDS011;7099;53.922;10.728;2022-12-18T13:51:31;24.57;;;9.30;;
14048;SDS011;7099;53.922;10.728;2022-12-18T13:55:38;17.80;;;8.30;;
14048;SDS011;7099;53.922;10.728;2022-12-18T13:59:51;16.77;;;8.30;;
14048;SDS011;7099;53.922;10.728;2022-12-18T14:04:08;24.30;;;9.13;;
14048;SDS011;7099;53.922;10.728;2022-12-18T14:08:22;22.27;;;9.27;;
14048;SDS011;7099;53.922;10.728;2022-12-18T14:12:36;17.60;;;8.63;;
14048;SDS011;7099;53.922;10.728;2022-12-18T14:17:07;22.47;;;9.27;;
14048;SDS011;7099;53.922;10.728;2022-12-18T14:21:19;22.80;;;8.97;;
14048;SDS011;7099;53.922;10.728;2022-12-18T14:25:36;22.03;;;9.03;;
14048;SDS011;7099;53.922;10.728;2022-12-18T14:29:42;22.50;;;9.90;;
14048;SDS011;7099;53.922;10.728;2022-12-18T14:33:48;18.37;;;9.00;;
14048;SDS011;7099;53.922;10.728;2022-12-18T14:37:53;27.07;;;9.57;;
14048;SDS011;7099;53.922;10.728;2022-12-18T14:42:32;22.60;;;9.83;;
14048;SDS011;7099;53.922;10.728;2022-12-18T14:46:47;25.57;;;11.10;;
14048;SDS011;7099;53.922;10.728;2022-12-18T14:50:58;25.40;;;10.60;;
14048;SDS011;7099;53.922;10.728;2022-12-18T14:55:18;25.80;;;10.03;;
14048;SDS011;7099;53.922;10.728;2022-12-18T14:59:25;23.93;;;10.23;;
14048;SDS011;7099;53.922;10.728;2022-12-18T15:03:31;29.23;;;11.77;;
14048;SDS011;7099;53.922;10.728;2022-12-18T15:11:56;24.77;;;11.10;;
14048;SDS011;7099;53.922;10.728;2022-12-18T15:16:04;27.80;;;10.70;;
14048;SDS011;7099;53.922;10.728;2022-12-18T15:20:17;20.23;;;9.73;;
14048;SDS011;7099;53.922;10.728;2022-12-18T15:24:24;23.80;;;9.93;;
14048;SDS011;7099;53.922;10.728;2022-12-18T15:28:38;33.07;;;10.77;;
14048;SDS011;7099;53.922;10.728;2022-12-18T15:32:48;19.10;;;9.07;;
14048;SDS011;7099;53.922;10.728;2022-12-18T15:36:54;25.50;;;9.57;;
14048;SDS011;7099;53.922;10.728;2022-12-18T15:40:59;25.20;;;9.13;;
14048;SDS011;7099;53.922;10.728;2022-12-18T15:45:04;26.63;;;11.13;;
14048;SDS011;7099;53.922;10.728;2022-12-18T15:49:12;37.37;;;11.70;;
14048;SDS011;7099;53.922;10.728;2022-12-18T15:53:17;21.83;;;11.17;;
14048;SDS011;7099;53.922;10.728;2022-12-18T15:57:22;22.47;;;10.67;;
14048;SDS011;7099;53.922;10.728;2022-12-18T16:01:28;18.27;;;8.53;;
14048;SDS011;7099;53.922;10.728;2022-12-18T16:05:35;26.30;;;11.10;;
14048;SDS011;7099;53.922;10.728;2022-12-18T16:09:40;28.30;;;12.48;;
14048;SDS011;7099;53.922;10.728;2022-12-18T16:13:46;23.17;;;10.60;;
14048;SDS011;7099;53.922;10.728;2022-12-18T16:17:50;18.53;;;9.57;;
14048;SDS011;7099;53.922;10.728;2022-12-18T16:21:56;23.07;;;10.23;;
14048;SDS011;7099;53.922;10.728;2022-12-18T16:26:02;25.80;;;10.20;;
14048;SDS011;7099;53.922;10.728;2022-12-18T16:30:12;17.20;;;9.73;;
14048;SDS011;7099;53.922;10.728;2022-12-18T16:38:38;22.10;;;11.07;;
14048;SDS011;7099;53.922;10.728;2022-12-18T16:42:43;20.33;;;9.17;;
14048;SDS011;7099;53.922;10.728;2022-12-18T16:46:49;18.70;;;9.30;;
14048;SDS011;7099;53.922;10.728;2022-12-18T16:51:02;30.87;;;10.43;;
14048;SDS011;7099;53.922;10.728;2022-12-18T16:55:08;24.60;;;10.10;;
14048;SDS011;7099;53.922;10.728;2022-12-18T16:59:14;20.70;;;9.50;;
14048;SDS011;7099;53.922;10.728;2022-12-18T17:03:43;23.27;;;9.80;;
14048;SDS011;7099;53.922;10.728;2022-12-18T17:07:50;23.63;;;10.03;;
14048;SDS011;7099;53.922;10.728;2022-12-18T17:11:55;18.70;;;9.57;;
14048;SDS011;7099;53.922;10.728;2022-12-18T17:16:06;19.23;;;9.07;;
14048;SDS011;7099;53.922;10.728;2022-12-18T17:20:12;21.63;;;10.63;;
14048;SDS011;7099;53.922;10.728;2022-12-18T17:24:18;16.03;;;8.43;;
14048;SDS011;7099;53.922;10.728;2022-12-18T17:28:24;17.80;;;9.40;;
14048;SDS011;7099;53.922;10.728;2022-12-18T17:32:30;21.03;;;10.17;;
14048;SDS011;7099;53.922;10.728;2022-12-18T17:36:36;19.30;;;9.40;;
14048;SDS011;7099;53.922;10.728;2022-12-18T17:40:41;15.60;;;8.10;;
14048;SDS011;7099;53.922;10.728;2022-12-18T17:44:49;19.63;;;9.50;;
14048;SDS011;7099;53.922;10.728;2022-12-18T17:48:55;17.13;;;8.60;;
14048;SDS011;7099;53.922;10.728;2022-12-18T17:53:01;18.00;;;9.50;;
14048;SDS011;7099;53.922;10.728;2022-12-18T17:57:06;17.33;;;9.10;;
14048;SDS011;7099;53.922;10.728;2022-12-18T18:01:11;17.57;;;8.47;;
14048;SDS011;7099;53.922;10.728;2022-12-18T18:05:19;14.23;;;8.60;;
14048;SDS011;7099;53.922;10.728;2022-12-18T18:09:24;13.90;;;8.67;;
14048;SDS011;7099;53.922;10.728;2022-12-18T18:13:29;14.90;;;8.33;;
14048;SDS011;7099;53.922;10.728;2022-12-18T18:17:53;17.20;;;8.60;;
14048;SDS011;7099;53.922;10.728;2022-12-18T18:21:58;13.37;;;7.63;;
14048;SDS011;7099;53.922;10.728;2022-12-18T18:26:06;21.30;;;8.43;;
14048;SDS011;7099;53.922;10.728;2022-12-18T18:30:12;18.17;;;8.10;;
14048;SDS011;7099;53.922;10.728;2022-12-18T18:34:21;18.90;;;9.30;;
14048;SDS011;7099;53.922;10.728;2022-12-18T18:38:29;17.13;;;9.17;;
14048;SDS011;7099;53.922;10.728;2022-12-18T18:42:34;21.23;;;10.03;;
14048;SDS011;7099;53.922;10.728;2022-12-18T18:46:39;18.47;;;8.80;;
14048;SDS011;7099;53.922;10.728;2022-12-18T18:50:44;18.33;;;9.40;;
14048;SDS011;7099;53.922;10.728;2022-12-18T18:55:06;16.77;;;8.20;;
14048;SDS011;7099;53.922;10.728;2022-12-18T18:59:28;20.37;;;9.13;;
14048;SDS011;7099;53.922;10.728;2022-12-18T19:03:35;18.63;;;9.57;;
14048;SDS011;7099;53.922;10.728;2022-12-18T19:07:41;15.70;;;8.07;;
14048;SDS011;7099;53.922;10.728;2022-12-18T19:11:46;12.80;;;7.00;;
14048;SDS011;7099;53.922;10.728;2022-12-18T19:16:09;17.57;;;8.60;;
14048;SDS011;7099;53.922;10.728;2022-12-18T19:20:15;13.60;;;8.17;;
14048;SDS011;7099;53.922;10.728;2022-12-18T19:24:20;14.77;;;8.10;;
14048;SDS011;7099;53.922;10.728;2022-12-18T19:28:25;14.40;;;7.90;;
14048;SDS011;7099;53.922;10.728;2022-12-18T19:32:32;14.53;;;8.40;;
14048;SDS011;7099;53.922;10.728;2022-12-18T19:36:38;15.27;;;8.80;;
14048;SDS011;7099;53.922;10.728;2022-12-18T19:40:44;12.93;;;8.07;;
14048;SDS011;7099;53.922;10.728;2022-12-18T19:44:49;15.90;;;8.47;;
14048;SDS011;7099;53.922;10.728;2022-12-18T19:48:55;14.90;;;8.30;;
14048;SDS011;7099;53.922;10.728;2022-12-18T19:53:02;14.03;;;8.40;;
14048;SDS011;7099;53.922;10.728;2022-12-18T19:57:09;18.17;;;7.33;;
14048;SDS011;7099;53.922;10.728;2022-12-18T20:01:16;14.60;;;8.60;;
14048;SDS011;7099;53.922;10.728;2022-12-18T20:05:23;17.97;;;8.87;;
14048;SDS011;7099;53.922;10.728;2022-12-18T20:09:28;7.77;;;4.90;;
14048;SDS011;7099;53.922;10.728;2022-12-18T20:13:34;14.77;;;8.17;;
14048;SDS011;7099;53.922;10.728;2022-12-18T20:17:39;16.30;;;7.90;;
14048;SDS011;7099;53.922;10.728;2022-12-18T20:21:45;14.13;;;7.47;;
14048;SDS011;7099;53.922;10.728;2022-12-18T20:25:53;12.60;;;7.50;;
14048;SDS011;7099;53.922;10.728;2022-12-18T20:29:59;15.57;;;8.27;;
14048;SDS011;7099;53.922;10.728;2022-12-18T20:34:04;12.33;;;7.13;;
14048;SDS011;7099;53.922;10.728;2022-12-18T20:38:10;12.87;;;7.47;;
14048;SDS011;7099;53.922;10.728;2022-12-18T20:42:15;14.27;;;7.63;;
14048;SDS011;7099;53.922;10.728;2022-12-18T20:46:20;15.43;;;8.00;;
14048;SDS011;7099;53.922;10.728;2022-12-18T20:50:25;17.17;;;7.50;;
14048;SDS011;7099;53.922;10.728;2022-12-18T20:54:31;14.80;;;7.70;;
14048;SDS011;7099;53.922;10.728;2022-12-18T20:58:36;15.70;;;8.00;;
14048;SDS011;7099;53.922;10.728;2022-12-18T21:02:41;12.97;;;7.23;;
14048;SDS011;7099;53.922;10.728;2022-12-18T21:06:47;15.80;;;7.77;;
14048;SDS011;7099;53.922;10.728;2022-12-18T21:15:42;12.20;;;7.23;;
14048;SDS011;7099;53.922;10.728;2022-12-18T21:19:47;15.63;;;7.73;;
14048;SDS011;7099;53.922;10.728;2022-12-18T21:23:52;12.23;;;6.90;;
14048;SDS011;7099;53.922;10.728;2022-12-18T21:27:57;14.13;;;7.43;;
14048;SDS011;7099;53.922;10.728;2022-12-18T21:32:03;13.60;;;7.47;;
14048;SDS011;7099;53.922;10.728;2022-12-18T21:36:09;14.80;;;7.90;;
14048;SDS011;7099;53.922;10.728;2022-12-18T21:40:14;14.57;;;6.93;;
14048;SDS011;7099;53.922;10.728;2022-12-18T21:44:19;14.20;;;7.67;;
14048;SDS011;7099;53.922;10.728;2022-12-18T21:48:24;12.97;;;7.40;;
14048;SDS011;7099;53.922;10.728;2022-12-18T21:52:29;11.43;;;7.50;;
14048;SDS011;7099;53.922;10.728;2022-12-18T21:56:46;14.17;;;7.87;;
14048;SDS011;7099;53.922;10.728;2022-12-18T22:01:02;13.93;;;8.00;;
14048;SDS011;7099;53.922;10.728;2022-12-18T22:05:07;11.73;;;7.90;;
14048;SDS011;7099;53.922;10.728;2022-12-18T22:09:13;13.10;;;7.53;;
14048;SDS011;7099;53.922;10.728;2022-12-18T22:13:21;12.07;;;7.00;;
14048;SDS011;7099;53.922;10.728;2022-12-18T22:17:26;12.80;;;7.43;;
14048;SDS011;7099;53.922;10.728;2022-12-18T22:21:33;12.70;;;7.50;;
14048;SDS011;7099;53.922;10.728;2022-12-18T22:25:41;15.53;;;6.70;;
14048;SDS011;7099;53.922;10.728;2022-12-18T22:29:46;14.63;;;7.60;;
14048;SDS011;7099;53.922;10.728;2022-12-18T22:34:07;16.63;;;7.20;;
14048;SDS011;7099;53.922;10.728;2022-12-18T22:38:12;13.30;;;7.07;;
14048;SDS011;7099;53.922;10.728;2022-12-18T22:42:17;15.13;;;8.00;;
14048;SDS011;7099;53.922;10.728;2022-12-18T22:46:23;14.67;;;7.83;;
14048;SDS011;7099;53.922;10.728;2022-12-18T22:50:30;12.43;;;7.40;;
14048;SDS011;7099;53.922;10.728;2022-12-18T22:54:36;16.13;;;7.37;;
14048;SDS011;7099;53.922;10.728;2022-12-18T22:58:41;12.23;;;6.70;;
14048;SDS011;7099;53.922;10.728;2022-12-18T23:02:47;14.90;;;7.40;;
14048;SDS011;7099;53.922;10.728;2022-12-18T23:06:54;14.17;;;7.80;;
14048;SDS011;7099;53.922;10.728;2022-12-18T23:10:59;14.73;;;6.93;;
14048;SDS011;7099;53.922;10.728;2022-12-18T23:15:04;12.73;;;7.87;;
14048;SDS011;7099;53.922;10.728;2022-12-18T23:19:09;12.80;;;6.10;;
14048;SDS011;7099;53.922;10.728;2022-12-18T23:23:14;12.83;;;7.43;;
14048;SDS011;7099;53.922;10.728;2022-12-18T23:27:20;12.47;;;6.73;;
14048;SDS011;7099;53.922;10.728;2022-12-18T23:31:29;16.43;;;7.43;;
14048;SDS011;7099;53.922;10.728;2022-12-18T23:35:37;11.90;;;7.20;;
14048;SDS011;7099;53.922;10.728;2022-12-18T23:39:42;11.00;;;7.27;;
14048;SDS011;7099;53.922;10.728;2022-12-18T23:43:47;12.87;;;7.17;;
14048;SDS011;7099;53.922;10.728;2022-12-18T23:47:53;13.23;;;7.50;;
14048;SDS011;7099;53.922;10.728;2022-12-18T23:51:58;13.47;;;6.97;;
14048;SDS011;7099;53.922;10.728;2022-12-18T23:56:03;15.73;;;7.70;;
